createdAt,value
2022-09-20T00:00:48.472Z,94.42
2022-09-20T00:03:16.855Z,93.88
2022-09-20T00:05:45.420Z,94.33
2022-09-20T00:08:15.246Z,93.78
2022-09-20T00:10:42.977Z,94.61
2022-09-20T00:13:11.354Z,95.40
2022-09-20T00:16:05.951Z,95.51
2022-09-20T00:18:32.798Z,95.46
2022-09-20T00:20:59.437Z,95.94
2022-09-20T00:23:26.435Z,96.08
2022-09-20T00:25:57.712Z,96.38
2022-09-20T00:28:25.521Z,96.23
2022-09-20T00:30:53.084Z,96.76
2022-09-20T00:33:20.393Z,96.01
2022-09-20T00:35:47.262Z,96.90
2022-09-20T00:38:14.101Z,97.63
2022-09-20T00:40:42.266Z,97.70
2022-09-20T00:43:16.416Z,97.51
2022-09-20T00:45:44.710Z,98.31
2022-09-20T00:48:37.725Z,97.80
2022-09-20T00:51:09.114Z,97.87
2022-09-20T00:53:41.094Z,97.41
2022-09-20T00:56:11.231Z,97.29
2022-09-20T00:58:41.704Z,97.27
2022-09-20T01:01:08.576Z,97.96
2022-09-20T01:03:36.790Z,97.74
2022-09-20T01:06:07.320Z,98.74
2022-09-20T01:08:34.461Z,98.31
2022-09-20T01:11:01.859Z,97.99
2022-09-20T01:13:28.948Z,97.44
2022-09-20T01:15:59.042Z,98.50
2022-09-20T01:18:26.898Z,97.89
2022-09-20T01:20:54.271Z,98.86
2022-09-20T01:23:36.081Z,98.77
2022-09-20T01:26:20.948Z,99.70
2022-09-20T01:28:49.767Z,99.48
2022-09-20T01:31:26.628Z,98.81
2022-09-20T01:33:58.861Z,99.41
2022-09-20T01:36:39.825Z,100.00
2022-09-20T01:39:24.763Z,100.00
2022-09-20T01:41:58.088Z,99.97
2022-09-20T01:44:27.872Z,100.00
2022-09-20T01:47:05.794Z,100.00
2022-09-20T01:50:08.087Z,100.00
2022-09-20T01:52:52.998Z,100.00
2022-09-20T01:55:38.175Z,100.00
2022-09-20T01:58:31.771Z,100.00
2022-09-20T02:01:23.507Z,100.00
2022-09-20T02:04:16.347Z,99.64
2022-09-20T02:07:01.583Z,99.88
2022-09-20T02:09:42.228Z,99.36
2022-09-20T02:12:38.894Z,98.55
2022-09-20T02:15:23.881Z,98.86
2022-09-20T02:18:11.768Z,98.85
2022-09-20T02:21:11.776Z,98.45
2022-09-20T02:23:50.682Z,98.57
2022-09-20T02:26:17.245Z,99.26
2022-09-20T02:28:55.234Z,99.86
2022-09-20T02:31:52.564Z,100.00
2022-09-20T02:34:56.824Z,99.94
2022-09-20T02:37:44.861Z,99.63
2022-09-20T02:40:11.450Z,99.94
2022-09-20T02:51:36.863Z,99.58
2022-09-20T02:54:22.242Z,99.80
2022-09-20T02:57:13.822Z,100.00
2022-09-20T02:59:46.653Z,100.00
2022-09-20T03:02:22.589Z,99.45
2022-09-20T03:05:19.754Z,99.40
2022-09-20T03:08:11.223Z,98.89
2022-09-20T03:10:45.379Z,97.87
2022-09-20T03:13:51.160Z,97.40
2022-09-20T03:16:52.564Z,97.78
2022-09-20T03:19:35.050Z,97.36
2022-09-20T03:22:26.339Z,97.29
2022-09-20T03:25:05.070Z,96.77
2022-09-20T03:27:50.371Z,96.96
2022-09-20T03:30:34.996Z,97.37
2022-09-20T03:33:16.824Z,97.43
2022-09-20T03:36:10.878Z,97.57
2022-09-20T03:38:46.661Z,97.24
2022-09-20T03:41:23.633Z,98.24
2022-09-20T03:43:56.524Z,98.76
2022-09-20T03:46:42.840Z,99.42
2022-09-20T03:49:51.481Z,98.64
2022-09-20T03:52:36.616Z,98.69
2022-09-20T03:55:15.465Z,98.10
2022-09-20T03:57:42.191Z,98.66
2022-09-20T04:00:21.055Z,97.98
2022-09-20T04:02:59.935Z,97.28
2022-09-20T04:06:05.503Z,97.43
2022-09-20T04:08:33.332Z,97.61
2022-09-20T04:11:06.268Z,97.50
2022-09-20T04:13:36.290Z,98.20
2022-09-20T04:16:24.894Z,98.37
2022-09-20T04:18:57.741Z,98.80
2022-09-20T04:21:54.840Z,100.00
2022-09-20T04:24:33.389Z,100.00
2022-09-20T04:27:24.247Z,100.00
2022-09-20T04:30:05.494Z,100.00
2022-09-20T04:32:33.903Z,100.00
2022-09-20T04:35:41.413Z,100.00
2022-09-20T04:38:15.219Z,100.00
2022-09-20T04:40:54.356Z,100.00
2022-09-20T04:43:39.321Z,100.00
2022-09-20T04:46:29.688Z,100.00
2022-09-20T04:49:18.895Z,100.00
2022-09-20T04:52:19.255Z,100.00
2022-09-20T04:55:28.008Z,100.00
2022-09-20T04:58:17.016Z,100.00
2022-09-20T05:00:43.874Z,100.00
2022-09-20T05:03:36.083Z,100.00
2022-09-20T05:06:27.246Z,100.00
2022-09-20T05:09:20.190Z,99.83
2022-09-20T05:11:52.636Z,99.67
2022-09-20T05:17:16.855Z,100.00
2022-09-20T05:20:14.478Z,100.00
2022-09-20T05:23:25.886Z,99.79
2022-09-20T05:26:15.244Z,99.14
2022-09-20T05:29:29.558Z,99.13
2022-09-20T05:58:23.296Z,99.50
2022-09-20T06:00:57.300Z,98.92
2022-09-20T06:04:08.306Z,98.59
2022-09-20T06:06:53.778Z,97.87
2022-09-20T06:09:32.659Z,97.71
2022-09-20T06:12:41.170Z,98.80
2022-09-20T06:15:21.522Z,99.01
2022-09-20T06:18:19.180Z,98.62
2022-09-20T06:20:57.651Z,97.22
2022-09-20T06:23:25.195Z,96.51
2022-09-20T06:26:14.178Z,96.26
2022-09-20T06:28:44.302Z,96.13
2022-09-20T06:31:11.363Z,97.62
2022-09-20T06:33:53.770Z,97.19
2022-09-20T06:36:44.518Z,97.09
2022-09-20T06:39:52.537Z,95.80
2022-09-20T06:42:23.332Z,96.13
2022-09-20T06:45:02.480Z,96.27
2022-09-20T06:47:48.322Z,97.27
2022-09-20T06:50:16.535Z,97.25
2022-09-20T06:52:47.516Z,98.68
2022-09-20T06:55:29.292Z,98.56
2022-09-20T06:57:56.483Z,99.02
2022-09-20T07:00:23.259Z,99.06
2022-09-20T07:02:51.334Z,98.95
2022-09-20T07:05:21.932Z,98.64
2022-09-20T07:07:57.155Z,98.64
2022-09-20T07:10:26.229Z,99.02
2022-09-20T07:12:56.256Z,97.46
2022-09-20T07:15:24.264Z,96.24
2022-09-20T07:18:18.718Z,94.75
2022-09-20T07:20:54.431Z,94.77
2022-09-20T07:23:24.404Z,93.70
2022-09-20T07:25:55.750Z,93.16
2022-09-20T07:28:22.698Z,92.37
2022-09-20T07:30:50.172Z,90.77
2022-09-20T07:33:21.488Z,90.50
2022-09-20T07:35:49.061Z,89.04
2022-09-20T07:38:19.158Z,88.78
2022-09-20T07:40:46.322Z,87.90
2022-09-20T07:43:13.068Z,87.00
2022-09-20T07:45:39.946Z,85.62
2022-09-20T07:48:09.621Z,83.59
2022-09-20T07:50:36.555Z,84.51
2022-09-20T07:53:04.782Z,84.38
2022-09-20T07:55:31.521Z,83.86
2022-09-20T07:57:58.244Z,82.72
2022-09-20T08:00:24.984Z,82.37
2022-09-20T08:02:59.209Z,81.59
2022-09-20T08:05:26.515Z,81.02
2022-09-20T08:07:53.224Z,80.53
2022-09-20T08:10:20.246Z,82.46
2022-09-20T08:15:34.306Z,82.51
2022-09-20T08:18:04.288Z,81.54
2022-09-20T08:20:31.026Z,82.78
2022-09-20T08:23:22.107Z,81.62
2022-09-20T08:25:45.725Z,81.50
2022-09-20T08:28:12.373Z,81.72
2022-09-20T08:30:39.140Z,81.63
2022-09-20T08:33:07.068Z,82.08
2022-09-20T08:35:39.849Z,81.16
2022-09-20T08:40:59.574Z,79.33
2022-09-20T08:43:30.042Z,78.80
2022-09-20T08:45:59.026Z,79.25
2022-09-20T08:48:32.442Z,77.14
2022-09-20T08:51:05.626Z,75.99
2022-09-20T08:53:33.853Z,76.00
2022-09-20T08:56:01.440Z,75.21
2022-09-20T08:58:28.561Z,74.92
2022-09-20T09:01:00.102Z,73.59
2022-09-20T09:03:28.271Z,73.66
2022-09-20T09:06:01.213Z,74.15
2022-09-20T09:08:38.329Z,74.77
2022-09-20T09:11:09.602Z,74.47
2022-09-20T09:13:45.347Z,74.14
2022-09-20T09:16:22.622Z,74.38
2022-09-20T09:18:51.736Z,74.27
2022-09-20T09:21:23.862Z,72.18
2022-09-20T09:23:54.395Z,71.68
2022-09-20T09:26:23.840Z,71.44
2022-09-20T09:29:12.386Z,71.33
2022-09-20T09:31:39.905Z,71.06
2022-09-20T09:34:26.547Z,70.87
2022-09-20T09:36:54.471Z,69.94
2022-09-20T09:39:38.371Z,70.03
2022-09-20T09:42:26.181Z,69.84
2022-09-20T09:44:53.314Z,68.42
2022-09-20T09:47:30.007Z,68.90
2022-09-20T09:50:04.830Z,69.44
2022-09-20T09:52:35.450Z,71.04
2022-09-20T09:55:05.426Z,73.43
2022-09-20T09:57:52.037Z,74.98
2022-09-20T10:01:08.822Z,75.33
2022-09-20T10:03:18.923Z,75.96
2022-09-20T10:06:14.766Z,78.82
2022-09-20T10:09:05.479Z,85.37
2022-09-20T10:11:50.880Z,84.91
2022-09-20T10:14:36.708Z,84.36
2022-09-20T10:17:31.782Z,84.68
2022-09-20T10:20:12.120Z,84.16
2022-09-20T10:23:39.400Z,84.12
2022-09-20T10:26:08.082Z,84.22
2022-09-20T10:28:51.583Z,83.56
2022-09-20T10:31:44.841Z,83.38
2022-09-20T10:38:21.981Z,80.68
2022-09-20T10:41:36.550Z,79.79
2022-09-20T10:52:22.659Z,76.21
2022-09-20T10:55:05.409Z,73.60
2022-09-20T10:57:58.774Z,73.64
2022-09-20T11:01:29.149Z,72.15
2022-09-20T11:04:37.942Z,71.63
2022-09-20T11:07:19.586Z,72.24
2022-09-20T11:10:03.131Z,71.73
2022-09-20T11:12:44.867Z,72.16
2022-09-20T11:15:55.070Z,73.82
2022-09-20T11:21:51.996Z,72.88
2022-09-20T11:24:52.668Z,70.62
2022-09-20T11:31:35.026Z,69.66
2022-09-20T11:34:36.174Z,70.51
2022-09-20T11:37:22.568Z,69.81
2022-09-20T11:40:51.634Z,70.39
2022-09-20T11:44:40.059Z,70.96
2022-09-20T11:48:17.792Z,72.06
2022-09-20T11:51:07.229Z,70.45
2022-09-20T11:58:18.315Z,71.26
2022-09-20T12:01:28.114Z,69.81
2022-09-20T12:11:08.493Z,66.53
2022-09-20T12:13:56.908Z,65.04
2022-09-20T12:17:38.339Z,65.00
2022-09-20T12:28:05.612Z,61.91
2022-09-20T12:30:52.378Z,61.22
2022-09-20T16:59:07.916Z,65.75
2022-09-20T17:01:45.247Z,66.05
2022-09-20T17:04:14.351Z,66.26
2022-09-20T17:06:43.502Z,65.82
2022-09-20T17:09:19.194Z,65.43
2022-09-20T17:16:05.863Z,66.55
2022-09-20T17:18:50.454Z,67.68
2022-09-20T17:21:28.138Z,67.85
2022-09-20T17:24:29.355Z,67.95
2022-09-20T17:27:21.018Z,68.88
2022-09-20T17:30:14.244Z,69.38
2022-09-20T17:33:18.873Z,70.30
2022-09-20T17:35:54.995Z,70.94
2022-09-20T17:38:22.835Z,71.85
2022-09-20T17:40:58.883Z,72.39
2022-09-20T17:43:27.250Z,73.12
2022-09-20T17:45:58.582Z,73.49
2022-09-20T17:48:40.614Z,73.46
2022-09-20T17:51:28.405Z,73.84
2022-09-20T20:39:21.690Z,88.40
2022-09-20T20:41:52.708Z,90.09
2022-09-20T20:45:18.932Z,89.74
2022-09-20T20:47:51.409Z,88.98
2022-09-20T20:50:20.544Z,89.09
2022-09-20T20:52:57.538Z,88.45
2022-09-20T20:55:27.600Z,87.83
2022-09-20T20:57:58.408Z,87.52
2022-09-20T21:00:28.749Z,87.86
2022-09-20T21:03:00.118Z,88.16
2022-09-20T21:05:32.926Z,87.64
2022-09-20T21:07:59.757Z,87.28
2022-09-20T21:10:26.671Z,87.74
2022-09-20T21:12:56.941Z,87.53
2022-09-20T21:15:28.402Z,87.95
2022-09-20T21:17:59.060Z,87.84
2022-09-20T21:20:36.448Z,88.19
2022-09-20T21:23:03.254Z,87.60
2022-09-20T21:25:29.958Z,87.28
2022-09-20T21:27:59.838Z,88.70
2022-09-20T21:30:26.447Z,88.27
2022-09-20T21:33:06.359Z,88.67
2022-09-20T21:35:34.608Z,90.14
2022-09-20T21:38:01.479Z,89.76
2022-09-20T21:40:29.606Z,90.05
2022-09-20T21:43:01.443Z,89.54
2022-09-20T21:45:30.885Z,89.08
2022-09-20T21:48:06.738Z,89.51
2022-09-20T21:50:35.457Z,89.11
2022-09-20T21:53:06.084Z,89.58
2022-09-20T21:55:34.395Z,90.61
2022-09-20T21:58:12.060Z,90.86
2022-09-20T22:04:49.612Z,90.83
2022-09-20T22:07:47.453Z,91.04
2022-09-20T22:10:17.268Z,92.24
2022-09-20T22:12:46.340Z,91.63
2022-09-20T22:41:01.279Z,92.48
2022-09-20T22:43:33.044Z,92.90
2022-09-20T22:46:06.782Z,93.89
2022-09-20T22:48:56.680Z,94.79
2022-09-20T22:55:05.806Z,95.09
2022-09-20T22:57:32.764Z,95.89
2022-09-20T23:00:11.118Z,95.75
2022-09-20T23:06:27.547Z,95.93
2022-09-20T23:08:59.786Z,95.93
2022-09-20T23:11:54.532Z,94.58
2022-09-20T23:14:25.525Z,94.64
2022-09-20T23:16:53.112Z,94.59
2022-09-20T23:19:23.190Z,96.43
2022-09-20T23:22:01.584Z,97.17
2022-09-20T23:25:17.996Z,96.08
2022-09-20T23:32:34.936Z,94.14
2022-09-20T23:35:48.688Z,93.85
